Bay Port, Michigan
Current Conditions -  °F | °C
As of 4:39 PM on Friday 31 Oct 2014 (Local Time) from KBAX Reporting Station
Light Snow Light Snow  
Wind Chill: 25°   Ceiling: 1100
Heat Index: 36°   Visibility: 7mi
Dew Point: 35°   Wind: 21mph
Humidity: 97%   Direction: 10°N
Pressure: 30.03"   Gusts: 33mph
Location:  43.85°N, 83.37°W
Report Text: KBAX 312039Z AUTO 01018G29KT 7SM -SN OVC011 02/02 A3003 RMK AO2 T00200015
Loading
Personal Weather Stations






























Interactive Weather Map
Tropical Storm Tracking
New forecast layout! Learn more

10-Day Weather Forecast

Advertisements
Track Severe Weather on mobile